首页
METAR-TAF:

METAR-TAF

机场 :

贾巴尔普尔, 印度

纬度: 23-10-54N, 经度: 80-03-31E, 海拔: 495米

当前天气观测

该预报发布于5小时和1分钟前的14:00 UTC
风速10节,风向
温度 26°C
湿度 84%
气压 1004 hPa
能見度: 5000
少量云层高于2500英尺
少量云层高于3000英尺, 积雨云.
多云层高于10000英尺
霾,

METAR: VAJB 181400Z 18010KT 5000 HZ FEW025 FEW030CB BKN100 26/23 Q1004 NOSIG

时间: 00:31 (19:01 UTC)

预报

该预报发布于5小时和1分钟前的14:00 UTC
预报有效从18日的 15点(UTC)到 18日的 24点(UTC)
风速15节,风向南转西南,有时为25节阵风
能見度: 5000
散云层高于2000英尺
少量云层高于3000英尺, 积雨云.
多云层高于9000英尺
雷暴, 霾
短暂存在
从 18日的 14点(UTC)到 18日的 18点(UTC)
风速10节,风向南转西南,有时为20节阵风
能見度: 4000
雷暴, 小雨,

TAF: VAJB 181400Z 1815/1824 20015G25KT 5000 TS HZ SCT020 FEW030CB BKN090 TEMPO 1814/1818 20010G20KT 4000 -TSRA

超过4000个机场的气象观测和天气预报(METAR&TAF报告)。

可查询的气象台以黄色和红色小点在地图上表示。

将鼠标移到小点上方,可查看气象台名称。

然后点击查看天气观测和预报。

如需切换地图:点击带黑十字的绿色按钮放大地图;点击带横线的绿色按钮缩小地图;或者点击绿色箭头查看邻近地区的地图。


METAR-TAF: